Time,TemperatureF,DewpointF,PressureIn,WindDirection,WindDirectionDegrees,WindSpeedMPH,WindSpeedGustMPH,Humidity,HourlyPrecipIn,Conditions,Clouds,dailyrainin,SoftwareType,DateUTC
2013-05-30 00:01:00,60.4,58.7,30.11,SW,214,7.0,15.0,94,0.00,,---,0.00,VWS V14.01,2013-05-30 04:01:00,
2013-05-30 00:02:00,60.4,58.7,30.11,SSE,160,9.0,10.0,94,0.00,,---,0.00,VWS V14.01,2013-05-30 04:02:00,
2013-05-30 00:07:00,60.5,58.8,30.10,WSW,258,5.0,14.0,94,0.00,,---,0.00,VWS V14.01,2013-05-30 04:07:00,
2013-05-30 00:12:00,60.5,58.8,30.10,North,11,4.0,15.0,94,0.00,,---,0.00,VWS V14.01,2013-05-30 04:12:00,
2013-05-30 00:17:00,60.5,58.8,30.10,South,174,11.0,15.0,94,0.00,,---,0.00,VWS V14.01,2013-05-30 04:17:00,
2013-05-30 00:22:00,60.5,58.8,30.10,South,183,5.0,15.0,94,0.00,,---,0.00,VWS V14.01,2013-05-30 04:22:00,
2013-05-30 00:27:00,60.5,58.8,30.10,WNW,292,3.0,15.0,94,0.00,,---,0.00,VWS V14.01,2013-05-30 04:27:00,
2013-05-30 00:32:00,60.7,59.0,30.11,SSE,165,11.0,12.0,94,0.00,,---,0.00,VWS V14.01,2013-05-30 04:32:00,
2013-05-30 00:37:00,60.7,59.0,30.11,SSW,192,5.0,13.0,94,0.00,,---,0.00,VWS V14.01,2013-05-30 04:37:00,
2013-05-30 00:42:00,60.7,59.0,30.11,WSW,242,3.0,13.0,94,0.00,,---,0.00,VWS V14.01,2013-05-30 04:42:00,
2013-05-30 00:47:00,60.9,59.2,30.11,SE,143,13.0,17.0,94,0.00,,---,0.00,VWS V14.01,2013-05-30 04:47:00,
2013-05-30 00:52:00,60.8,58.8,30.11,SSW,212,6.0,17.0,93,0.00,,---,0.00,VWS V14.01,2013-05-30 04:52:00,
2013-05-30 00:57:00,60.9,58.9,30.11,WSW,255,3.0,17.0,93,0.00,,---,0.00,VWS V14.01,2013-05-30 04:57:00,
2013-05-30 01:02:00,60.7,58.7,30.11,WSW,238,6.0,10.0,93,0.00,,---,0.00,VWS V14.01,2013-05-30 05:02:00,
2013-05-30 01:07:00,60.6,58.6,30.11,ENE,70,5.0,13.0,93,0.00,,---,0.00,VWS V14.01,2013-05-30 05:07:00,
2013-05-30 01:12:00,60.4,58.4,30.11,NNE,14,4.0,14.0,93,0.00,,---,0.00,VWS V14.01,2013-05-30 05:12:00,
2013-05-30 01:18:00,60.5,58.8,30.11,East,95,4.0,14.0,94,0.00,,---,0.00,VWS V14.01,2013-05-30 05:18:00,
2013-05-30 01:23:00,60.4,58.7,30.11,SW,233,7.0,14.0,94,0.00,,---,0.00,VWS V14.01,2013-05-30 05:23:00,
2013-05-30 01:28:00,60.3,58.6,30.11,SE,146,7.0,14.0,94,0.00,,---,0.00,VWS V14.01,2013-05-30 05:28:00,
2013-05-30 01:33:00,60.4,58.7,30.11,SE,146,6.0,13.0,94,0.00,,---,0.00,VWS V14.01,2013-05-30 05:33:00,
2013-05-30 01:38:00,60.4,58.7,30.11,SE,141,6.0,16.0,94,0.00,,---,0.00,VWS V14.01,2013-05-30 05:38:00,
2013-05-30 01:43:00,60.7,59.3,30.11,West,261,5.0,16.0,95,0.00,,---,0.00,VWS V14.01,2013-05-30 05:43:00,
2013-05-30 01:48:00,60.7,59.0,30.11,SW,224,8.0,16.0,94,0.00,,---,0.00,VWS V14.01,2013-05-30 05:48:00,
2013-05-30 01:53:00,60.7,59.0,30.11,WSW,255,8.0,16.0,94,0.00,,---,0.00,VWS V14.01,2013-05-30 05:53:00,
2013-05-30 01:58:00,60.8,59.1,30.11,East,95,7.0,16.0,94,0.00,,---,0.00,VWS V14.01,2013-05-30 05:58:00,
2013-05-30 02:03:00,60.8,59.1,30.11,SSE,167,8.0,12.0,94,0.00,,---,0.00,VWS V14.01,2013-05-30 06:03:00,
2013-05-30 02:08:00,61.0,59.3,30.11,WSW,248,6.0,14.0,94,0.00,,---,0.00,VWS V14.01,2013-05-30 06:08:00,
2013-05-30 02:13:00,60.9,58.9,30.11,SSE,150,8.0,14.0,93,0.00,,---,0.00,VWS V14.01,2013-05-30 06:13:00,
2013-05-30 02:18:00,60.8,59.1,30.11,SSW,199,11.0,16.0,94,0.00,,---,0.00,VWS V14.01,2013-05-30 06:18:00,
2013-05-30 02:23:00,60.8,59.1,30.11,SSW,209,6.0,16.0,94,0.00,,---,0.00,VWS V14.01,2013-05-30 06:23:00,
2013-05-30 02:28:00,60.7,58.7,30.12,East,79,10.0,16.0,93,0.00,,---,0.00,VWS V14.01,2013-05-30 06:28:00,
2013-05-30 02:33:00,60.8,59.1,30.11,WSW,251,7.0,12.0,94,0.00,,---,0.00,VWS V14.01,2013-05-30 06:33:00,
2013-05-30 02:38:00,60.6,58.6,30.11,SSW,196,8.0,15.0,93,0.00,,---,0.00,VWS V14.01,2013-05-30 06:38:00,
2013-05-30 02:44:00,60.7,59.0,30.11,ENE,67,6.0,15.0,94,0.00,,---,0.00,VWS V14.01,2013-05-30 06:44:00,
2013-05-30 02:48:00,60.5,58.8,30.11,SW,217,5.0,15.0,94,0.00,,---,0.00,VWS V14.01,2013-05-30 06:48:00,
2013-05-30 02:54:00,60.5,58.8,30.11,West,280,8.0,15.0,94,0.00,,---,0.00,VWS V14.01,2013-05-30 06:54:00,
2013-05-30 02:59:00,60.4,58.4,30.11,SW,227,6.0,15.0,93,0.00,,---,0.00,VWS V14.01,2013-05-30 06:59:00,
2013-05-30 03:04:00,60.5,58.8,30.11,South,184,8.0,11.0,94,0.00,,---,0.00,VWS V14.01,2013-05-30 07:04:00,
2013-05-30 03:09:00,60.4,58.7,30.11,SW,226,12.0,14.0,94,0.00,,---,0.00,VWS V14.01,2013-05-30 07:09:00,
2013-05-30 03:14:00,60.6,58.9,30.11,SE,139,2.0,14.0,94,0.00,,---,0.00,VWS V14.01,2013-05-30 07:14:00,
2013-05-30 03:19:00,60.7,59.0,30.11,South,173,10.0,14.0,94,0.00,,---,0.00,VWS V14.01,2013-05-30 07:19:00,
2013-05-30 03:24:00,60.5,58.5,30.11,South,187,6.0,14.0,93,0.00,,---,0.00,VWS V14.01,2013-05-30 07:24:00,
2013-05-30 03:29:00,60.4,58.4,30.11,SSE,167,8.0,14.0,93,0.00,,---,0.00,VWS V14.01,2013-05-30 07:29:00,
2013-05-30 03:34:00,60.3,58.6,30.11,SW,226,8.0,10.0,94,0.00,,---,0.00,VWS V14.01,2013-05-30 07:34:00,
2013-05-30 03:39:00,60.4,58.7,30.12,ESE,113,13.0,13.0,94,0.00,,---,0.00,VWS V14.01,2013-05-30 07:39:00,
2013-05-30 03:44:00,60.5,58.8,30.11,NNE,20,9.0,13.0,94,0.00,,---,0.00,VWS V14.01,2013-05-30 07:44:00,
2013-05-30 03:49:00,60.8,59.1,30.12,SSW,195,5.0,13.0,94,0.00,,---,0.00,VWS V14.01,2013-05-30 07:49:00,
2013-05-30 03:54:00,61.6,60.2,30.12,West,263,3.0,13.0,95,0.00,,---,0.00,VWS V14.01,2013-05-30 07:54:00,
2013-05-30 03:59:00,61.7,59.7,30.12,ESE,103,12.0,13.0,93,0.00,,---,0.00,VWS V14.01,2013-05-30 07:59:00,
2013-05-30 04:04:00,61.8,60.1,30.12,West,270,7.0,11.0,94,0.00,,---,0.00,VWS V14.01,2013-05-30 08:04:00,
2013-05-30 04:09:00,61.9,59.9,30.12,SW,221,5.0,12.0,93,0.00,,---,0.00,VWS V14.01,2013-05-30 08:09:00,
2013-05-30 04:14:00,62.1,60.4,30.12,SE,141,5.0,12.0,94,0.00,,---,0.00,VWS V14.01,2013-05-30 08:14:00,
2013-05-30 04:20:00,62.2,59.8,30.12,SE,145,7.0,12.0,92,0.00,,---,0.00,VWS V14.01,2013-05-30 08:20:00,
2013-05-30 04:24:00,61.9,59.2,30.12,ENE,70,5.0,12.0,91,0.00,,---,0.00,VWS V14.01,2013-05-30 08:24:00,
2013-05-30 04:30:00,61.6,59.3,30.11,SSW,204,7.0,12.0,92,0.00,,---,0.00,VWS V14.01,2013-05-30 08:30:00,
2013-05-30 04:35:00,61.3,59.0,30.11,South,179,4.0,11.0,92,0.00,,---,0.00,VWS V14.01,2013-05-30 08:35:00,
2013-05-30 04:40:00,61.0,59.0,30.11,South,188,4.0,13.0,93,0.00,,---,0.00,VWS V14.01,2013-05-30 08:40:00,
2013-05-30 04:45:00,61.2,59.2,30.12,South,172,8.0,13.0,93,0.00,,---,0.00,VWS V14.01,2013-05-30 08:45:00,
2013-05-30 04:50:00,61.6,59.6,30.12,SSE,148,7.0,13.0,93,0.00,,---,0.00,VWS V14.01,2013-05-30 08:50:00,
2013-05-30 04:55:00,61.8,59.8,30.12,WNW,286,3.0,13.0,93,0.00,,---,0.00,VWS V14.01,2013-05-30 08:55:00,
2013-05-30 05:00:00,62.3,60.2,30.12,WSW,241,2.0,13.0,93,0.00,,---,0.00,VWS V14.01,2013-05-30 09:00:00,
2013-05-30 05:05:00,62.8,61.0,30.12,SW,224,4.0,6.0,94,0.00,,---,0.00,VWS V14.01,2013-05-30 09:05:00,
2013-05-30 05:10:00,64.3,62.5,30.12,SSW,211,3.0,6.0,94,0.00,,---,0.00,VWS V14.01,2013-05-30 09:10:00,
2013-05-30 05:15:00,65.6,63.5,30.12,SW,214,4.0,6.0,93,0.00,,---,0.00,VWS V14.01,2013-05-30 09:15:00,
2013-05-30 05:20:00,66.7,64.0,30.12,East,84,2.0,8.0,91,0.00,,---,0.00,VWS V14.01,2013-05-30 09:20:00,
2013-05-30 05:25:00,66.2,62.2,30.12,WSW,247,5.0,8.0,87,0.00,,---,0.00,VWS V14.01,2013-05-30 09:25:00,
2013-05-30 05:30:00,66.2,61.9,30.12,SSW,196,4.0,8.0,86,0.00,,---,0.00,VWS V14.01,2013-05-30 09:30:00,
2013-05-30 05:35:00,65.0,61.7,30.12,SW,233,1.0,4.0,89,0.00,,---,0.00,VWS V14.01,2013-05-30 09:35:00,
2013-05-30 05:40:00,65.6,62.9,30.12,SW,221,4.0,5.0,91,0.00,,---,0.00,VWS V14.01,2013-05-30 09:40:00,
2013-05-30 05:45:00,66.9,63.9,30.13,WSW,242,2.0,7.0,90,0.00,,---,0.00,VWS V14.01,2013-05-30 09:45:00,
2013-05-30 05:50:00,66.3,62.3,30.13,SSW,203,3.0,7.0,87,0.00,,---,0.00,VWS V14.01,2013-05-30 09:50:00,
2013-05-30 05:55:00,66.0,61.7,30.13,SW,231,3.0,7.0,86,0.00,,---,0.00,VWS V14.01,2013-05-30 09:55:00,
2013-05-30 06:00:00,64.8,60.8,30.13,NNW,341,4.0,7.0,87,0.00,,---,0.00,VWS V14.01,2013-05-30 10:00:00,
2013-05-30 06:05:00,65.0,61.7,30.13,SSE,154,3.0,6.0,89,0.00,,---,0.00,VWS V14.01,2013-05-30 10:05:00,
2013-05-30 06:10:00,65.6,62.0,30.13,SSE,163,2.0,6.0,88,0.00,,---,0.00,VWS V14.01,2013-05-30 10:10:00,
2013-05-30 06:15:00,64.4,60.1,30.14,SSW,209,4.0,8.0,86,0.00,,---,0.00,VWS V14.01,2013-05-30 10:15:00,
2013-05-30 06:20:00,64.0,60.1,30.14,SSW,198,2.0,8.0,87,0.00,,---,0.00,VWS V14.01,2013-05-30 10:20:00,
2013-05-30 06:25:00,64.2,61.2,30.14,West,263,4.0,8.0,90,0.00,,---,0.00,VWS V14.01,2013-05-30 10:25:00,
2013-05-30 06:30:00,63.8,59.5,30.14,WSW,249,4.0,8.0,86,0.00,,---,0.00,VWS V14.01,2013-05-30 10:30:00,
2013-05-30 06:35:00,63.3,59.7,30.14,SE,145,4.0,9.0,88,0.00,,---,0.00,VWS V14.01,2013-05-30 10:35:00,
2013-05-30 06:41:00,63.3,60.0,30.14,SE,144,2.0,9.0,89,0.00,,---,0.00,VWS V14.01,2013-05-30 10:41:00,
2013-05-30 06:46:00,63.1,59.8,30.14,South,183,4.0,9.0,89,0.00,,---,0.00,VWS V14.01,2013-05-30 10:46:00,
2013-05-30 06:51:00,63.1,59.5,30.14,WNW,292,5.0,10.0,88,0.00,,---,0.00,VWS V14.01,2013-05-30 10:51:00,
2013-05-30 06:56:00,63.0,59.4,30.14,NE,55,4.0,12.0,88,0.00,,---,0.00,VWS V14.01,2013-05-30 10:56:00,
2013-05-30 07:01:00,62.9,59.3,30.15,South,191,7.0,12.0,88,0.00,,---,0.00,VWS V14.01,2013-05-30 11:01:00,
2013-05-30 07:06:00,63.1,59.5,30.14,SW,221,10.0,11.0,88,0.00,,---,0.00,VWS V14.01,2013-05-30 11:06:00,
2013-05-30 07:11:00,63.5,59.9,30.15,WSW,245,5.0,11.0,88,0.00,,---,0.00,VWS V14.01,2013-05-30 11:11:00,
2013-05-30 07:16:00,63.5,59.9,30.15,NNE,20,2.0,11.0,88,0.00,,---,0.00,VWS V14.01,2013-05-30 11:16:00,
2013-05-30 07:21:00,63.6,59.7,30.15,West,265,4.0,12.0,87,0.00,,---,0.00,VWS V14.01,2013-05-30 11:21:00,
2013-05-30 07:26:00,63.6,59.7,30.15,West,279,3.0,12.0,87,0.00,,---,0.00,VWS V14.01,2013-05-30 11:26:00,
2013-05-30 07:31:00,63.9,60.0,30.15,SSE,150,6.0,12.0,87,0.00,,---,0.00,VWS V14.01,2013-05-30 11:31:00,
2013-05-30 07:36:00,64.0,59.7,30.15,SW,218,4.0,9.0,86,0.00,,---,0.00,VWS V14.01,2013-05-30 11:36:00,
2013-05-30 07:41:00,64.2,60.3,30.15,SSW,193,2.0,11.0,87,0.00,,---,0.00,VWS V14.01,2013-05-30 11:41:00,
2013-05-30 07:46:00,64.4,60.1,30.16,SE,143,7.0,11.0,86,0.00,,---,0.00,VWS V14.01,2013-05-30 11:46:00,
2013-05-30 07:51:00,64.5,60.2,30.15,SW,219,7.0,11.0,86,0.00,,---,0.00,VWS V14.01,2013-05-30 11:51:00,
2013-05-30 07:56:00,64.6,60.0,30.15,SSW,198,5.0,11.0,85,0.00,,---,0.00,VWS V14.01,2013-05-30 11:56:00,
2013-05-30 08:01:00,64.7,60.1,30.15,SW,218,8.0,10.0,85,0.00,,---,0.00,VWS V14.01,2013-05-30 12:01:00,
2013-05-30 08:06:00,64.9,60.3,30.15,East,100,4.0,10.0,85,0.00,,---,0.00,VWS V14.01,2013-05-30 12:06:00,
2013-05-30 08:11:00,64.8,60.2,30.15,SSW,210,5.0,13.0,85,0.00,,---,0.00,VWS V14.01,2013-05-30 12:11:00,
2013-05-30 08:17:00,65.1,60.5,30.15,WSW,255,5.0,13.0,85,0.00,,---,0.00,VWS V14.01,2013-05-30 12:17:00,
2013-05-30 08:22:00,65.3,60.3,30.15,NNE,30,10.0,13.0,84,0.00,,---,0.00,VWS V14.01,2013-05-30 12:22:00,
2013-05-30 08:27:00,65.4,60.5,30.15,SSW,194,7.0,13.0,84,0.00,,---,0.00,VWS V14.01,2013-05-30 12:27:00,
2013-05-30 08:32:00,65.6,60.6,30.16,WSW,240,7.0,13.0,84,0.00,,---,0.00,VWS V14.01,2013-05-30 12:32:00,
2013-05-30 08:37:00,65.9,60.6,30.15,SSW,207,6.0,13.0,83,0.00,,---,0.00,VWS V14.01,2013-05-30 12:37:00,
2013-05-30 08:42:00,66.1,60.8,30.15,SE,142,9.0,15.0,83,0.00,,---,0.00,VWS V14.01,2013-05-30 12:42:00,
2013-05-30 08:47:00,66.3,61.3,30.15,ESE,117,8.0,15.0,84,0.00,,---,0.00,VWS V14.01,2013-05-30 12:47:00,
2013-05-30 08:52:00,66.9,61.6,30.16,WNW,298,3.0,15.0,83,0.00,,---,0.00,VWS V14.01,2013-05-30 12:52:00,
2013-05-30 08:57:00,67.5,62.2,30.16,WSW,239,6.0,15.0,83,0.00,,---,0.00,VWS V14.01,2013-05-30 12:57:00,
2013-05-30 09:02:00,67.5,61.5,30.16,NW,323,7.0,9.0,81,0.00,,---,0.00,VWS V14.01,2013-05-30 13:02:00,
2013-05-30 09:07:00,67.8,61.8,30.16,South,181,5.0,13.0,81,0.00,,---,0.00,VWS V14.01,2013-05-30 13:07:00,
2013-05-30 09:12:00,67.7,61.3,30.16,SSE,157,11.0,13.0,80,0.00,,---,0.00,VWS V14.01,2013-05-30 13:12:00,
2013-05-30 09:17:00,67.2,60.8,30.16,South,179,8.0,13.0,80,0.00,,---,0.00,VWS V14.01,2013-05-30 13:17:00,
2013-05-30 09:22:00,66.4,60.4,30.16,SSW,211,7.0,13.0,81,0.00,,---,0.00,VWS V14.01,2013-05-30 13:22:00,
2013-05-30 09:27:00,65.8,59.8,30.16,South,180,7.0,13.0,81,0.00,,---,0.00,VWS V14.01,2013-05-30 13:27:00,
2013-05-30 09:32:00,65.6,60.0,30.16,WSW,256,6.0,10.0,82,0.00,,---,0.00,VWS V14.01,2013-05-30 13:32:00,
2013-05-30 09:37:00,65.5,60.2,30.16,SSW,205,8.0,11.0,83,0.00,,---,0.00,VWS V14.01,2013-05-30 13:37:00,
2013-05-30 09:42:00,65.7,60.4,30.16,ENE,73,7.0,12.0,83,0.00,,---,0.00,VWS V14.01,2013-05-30 13:42:00,
2013-05-30 09:47:00,66.0,60.3,30.16,WSW,255,3.0,12.0,82,0.00,,---,0.00,VWS V14.01,2013-05-30 13:47:00,
2013-05-30 09:52:00,66.0,60.3,30.16,NW,314,3.0,14.0,82,0.00,,---,0.00,VWS V14.01,2013-05-30 13:52:00,
2013-05-30 09:58:00,66.2,60.5,30.15,South,178,9.0,14.0,82,0.00,,---,0.00,VWS V14.01,2013-05-30 13:58:00,
2013-05-30 10:03:00,66.3,60.7,30.16,East,86,3.0,11.0,82,0.00,,---,0.00,VWS V14.01,2013-05-30 14:03:00,
2013-05-30 10:08:00,66.4,60.4,30.15,WSW,253,4.0,11.0,81,0.00,,---,0.00,VWS V14.01,2013-05-30 14:08:00,
2013-05-30 10:13:00,66.4,60.4,30.15,SSW,213,5.0,12.0,81,0.00,,---,0.00,VWS V14.01,2013-05-30 14:13:00,
2013-05-30 10:18:00,66.6,60.6,30.15,SSE,155,8.0,12.0,81,0.00,,---,0.00,VWS V14.01,2013-05-30 14:18:00,
2013-05-30 10:23:00,66.7,61.0,30.15,South,185,7.0,12.0,82,0.00,,---,0.00,VWS V14.01,2013-05-30 14:23:00,
2013-05-30 10:28:00,66.9,60.5,30.15,South,178,6.0,12.0,80,0.00,,---,0.00,VWS V14.01,2013-05-30 14:28:00,
2013-05-30 10:33:00,67.0,60.6,30.15,NNW,335,7.0,11.0,80,0.00,,---,0.00,VWS V14.01,2013-05-30 14:33:00,
2013-05-30 10:38:00,67.1,60.7,30.15,WSW,250,5.0,12.0,80,0.00,,---,0.00,VWS V14.01,2013-05-30 14:38:00,
2013-05-30 10:43:00,67.2,60.8,30.15,South,177,5.0,12.0,80,0.00,,---,0.00,VWS V14.01,2013-05-30 14:43:00,
2013-05-30 10:48:00,67.6,60.9,30.15,SSW,202,5.0,12.0,79,0.00,,---,0.00,VWS V14.01,2013-05-30 14:48:00,
2013-05-30 10:53:00,67.9,61.2,30.15,SSE,155,7.0,12.0,79,0.00,,---,0.00,VWS V14.01,2013-05-30 14:53:00,
2013-05-30 10:58:00,68.0,60.9,30.15,East,98,5.0,12.0,78,0.00,,---,0.00,VWS V14.01,2013-05-30 14:58:00,
2013-05-30 11:03:00,67.9,60.8,30.15,SSW,203,4.0,10.0,78,0.00,,---,0.00,VWS V14.01,2013-05-30 15:03:00,
2013-05-30 11:08:00,67.6,60.9,30.15,South,170,5.0,10.0,79,0.00,,---,0.00,VWS V14.01,2013-05-30 15:08:00,
2013-05-30 11:14:00,67.5,60.8,30.15,West,265,4.0,11.0,79,0.00,,---,0.00,VWS V14.01,2013-05-30 15:14:00,
2013-05-30 11:18:00,67.4,60.7,30.15,SSE,164,7.0,12.0,79,0.00,,---,0.00,VWS V14.01,2013-05-30 15:18:00,
2013-05-30 11:24:00,67.5,60.8,30.15,SW,221,6.0,12.0,79,0.00,,---,0.00,VWS V14.01,2013-05-30 15:24:00,
2013-05-30 11:29:00,67.6,60.9,30.15,West,269,4.0,13.0,79,0.00,,---,0.00,VWS V14.01,2013-05-30 15:29:00,
2013-05-30 11:34:00,67.7,60.6,30.15,East,80,6.0,12.0,78,0.00,,---,0.00,VWS V14.01,2013-05-30 15:34:00,
2013-05-30 11:39:00,67.6,60.9,30.15,South,188,8.0,13.0,79,0.00,,---,0.00,VWS V14.01,2013-05-30 15:39:00,
2013-05-30 11:44:00,67.9,60.8,30.15,SSE,160,5.0,13.0,78,0.00,,---,0.00,VWS V14.01,2013-05-30 15:44:00,
2013-05-30 11:49:00,67.9,60.8,30.15,WSW,248,9.0,14.0,78,0.00,,---,0.00,VWS V14.01,2013-05-30 15:49:00,
2013-05-30 11:55:00,67.8,61.1,30.15,ESE,102,6.0,14.0,79,0.00,,---,0.00,VWS V14.01,2013-05-30 15:55:00,
2013-05-30 12:00:00,67.9,60.8,30.15,South,190,7.0,14.0,78,0.00,,---,0.00,VWS V14.01,2013-05-30 16:00:00,
2013-05-30 12:06:00,68.3,61.2,30.15,SSW,202,7.0,11.0,78,0.00,,---,0.00,VWS V14.01,2013-05-30 16:06:00,
2013-05-30 12:11:00,68.3,61.2,30.15,West,262,7.0,13.0,78,0.00,,---,0.00,VWS V14.01,2013-05-30 16:11:00,
2013-05-30 12:16:00,68.5,61.4,30.15,South,184,4.0,15.0,78,0.00,,---,0.00,VWS V14.01,2013-05-30 16:16:00,
2013-05-30 12:21:00,68.5,61.4,30.15,SE,132,8.0,15.0,78,0.00,,---,0.00,VWS V14.01,2013-05-30 16:21:00,
2013-05-30 12:26:00,68.7,61.6,30.15,ESE,119,7.0,15.0,78,0.00,,---,0.00,VWS V14.01,2013-05-30 16:26:00,
2013-05-30 12:31:00,68.6,61.5,30.15,SSW,199,5.0,15.0,78,0.00,,---,0.00,VWS V14.01,2013-05-30 16:31:00,
2013-05-30 12:37:00,68.8,61.7,30.15,SE,126,10.0,13.0,78,0.00,,---,0.00,VWS V14.01,2013-05-30 16:37:00,
2013-05-30 12:42:00,68.9,61.4,30.15,SSE,163,4.0,13.0,77,0.00,,---,0.00,VWS V14.01,2013-05-30 16:42:00,
2013-05-30 12:47:00,69.0,61.5,30.15,SSW,197,6.0,13.0,77,0.00,,---,0.00,VWS V14.01,2013-05-30 16:47:00,
2013-05-30 12:52:00,69.0,61.5,30.15,West,259,6.0,13.0,77,0.00,,---,0.00,VWS V14.01,2013-05-30 16:52:00,
2013-05-30 12:57:00,68.9,61.4,30.15,NW,304,2.0,14.0,77,0.00,,---,0.00,VWS V14.01,2013-05-30 16:57:00,
2013-05-30 13:02:00,69.0,61.5,30.15,NE,46,4.0,10.0,77,0.00,,---,0.00,VWS V14.01,2013-05-30 17:02:00,
2013-05-30 13:07:00,68.8,61.3,30.15,SE,145,12.0,14.0,77,0.00,,---,0.00,VWS V14.01,2013-05-30 17:07:00,
2013-05-30 13:12:00,68.8,61.3,30.15,South,186,7.0,14.0,77,0.00,,---,0.00,VWS V14.01,2013-05-30 17:12:00,
2013-05-30 13:17:00,68.6,61.1,30.15,SSW,197,4.0,14.0,77,0.00,,---,0.00,VWS V14.01,2013-05-30 17:17:00,
2013-05-30 13:22:00,68.7,61.2,30.15,SSW,203,7.0,14.0,77,0.00,,---,0.00,VWS V14.01,2013-05-30 17:22:00,
2013-05-30 13:27:00,68.5,61.0,30.15,South,173,4.0,14.0,77,0.00,,---,0.00,VWS V14.01,2013-05-30 17:27:00,
2013-05-30 13:32:00,68.4,61.3,30.14,SSW,195,7.0,11.0,78,0.00,,---,0.00,VWS V14.01,2013-05-30 17:32:00,
2013-05-30 13:37:00,68.5,61.0,30.14,SSW,201,10.0,12.0,77,0.00,,---,0.00,VWS V14.01,2013-05-30 17:37:00,
2013-05-30 13:42:00,68.4,61.3,30.14,SE,143,11.0,12.0,78,0.00,,---,0.00,VWS V14.01,2013-05-30 17:42:00,
2013-05-30 13:48:00,68.7,61.6,30.14,SSE,164,8.0,13.0,78,0.00,,---,0.00,VWS V14.01,2013-05-30 17:48:00,
2013-05-30 13:53:00,68.8,61.3,30.14,West,268,5.0,13.0,77,0.00,,---,0.00,VWS V14.01,2013-05-30 17:53:00,
2013-05-30 13:58:00,69.0,61.5,30.14,South,185,7.0,13.0,77,0.00,,---,0.00,VWS V14.01,2013-05-30 17:58:00,
2013-05-30 14:03:00,69.2,61.7,30.14,SW,233,5.0,11.0,77,0.00,,---,0.00,VWS V14.01,2013-05-30 18:03:00,
2013-05-30 14:08:00,69.1,61.6,30.13,WSW,258,3.0,13.0,77,0.00,,---,0.00,VWS V14.01,2013-05-30 18:08:00,
2013-05-30 14:13:00,69.1,62.0,30.13,West,265,3.0,13.0,78,0.00,,---,0.00,VWS V14.01,2013-05-30 18:13:00,
2013-05-30 14:18:00,69.8,61.9,30.13,SSW,213,4.0,14.0,76,0.00,,---,0.00,VWS V14.01,2013-05-30 18:18:00,
2013-05-30 14:23:00,69.5,61.6,30.13,West,277,7.0,14.0,76,0.00,,---,0.00,VWS V14.01,2013-05-30 18:23:00,
2013-05-30 14:28:00,69.6,62.1,30.13,SSW,198,9.0,14.0,77,0.00,,---,0.00,VWS V14.01,2013-05-30 18:28:00,
2013-05-30 14:33:00,69.6,61.7,30.13,WSW,258,8.0,11.0,76,0.00,,---,0.00,VWS V14.01,2013-05-30 18:33:00,
2013-05-30 14:38:00,69.7,61.8,30.13,SW,220,9.0,15.0,76,0.00,,---,0.00,VWS V14.01,2013-05-30 18:38:00,
2013-05-30 14:43:00,69.5,61.6,30.13,South,191,6.0,17.0,76,0.00,,---,0.00,VWS V14.01,2013-05-30 18:43:00,
2013-05-30 14:48:00,69.6,62.1,30.13,East,89,6.0,17.0,77,0.00,,---,0.00,VWS V14.01,2013-05-30 18:48:00,
2013-05-30 14:53:00,69.9,62.0,30.12,SSW,198,9.0,17.0,76,0.00,,---,0.00,VWS V14.01,2013-05-30 18:53:00,
2013-05-30 14:58:00,69.6,61.7,30.13,South,172,11.0,17.0,76,0.00,,---,0.00,VWS V14.01,2013-05-30 18:58:00,
2013-05-30 15:03:00,69.4,61.9,30.12,SSW,212,6.0,12.0,77,0.00,,---,0.00,VWS V14.01,2013-05-30 19:03:00,
2013-05-30 15:08:00,69.3,61.8,30.12,South,176,8.0,13.0,77,0.00,,---,0.00,VWS V14.01,2013-05-30 19:08:00,
2013-05-30 15:13:00,69.5,62.0,30.12,ENE,68,5.0,13.0,77,0.00,,---,0.00,VWS V14.01,2013-05-30 19:13:00,
2013-05-30 15:18:00,69.9,62.4,30.12,North,356,3.0,13.0,77,0.00,,---,0.00,VWS V14.01,2013-05-30 19:18:00,
2013-05-30 15:23:00,70.3,62.8,30.12,West,260,6.0,15.0,77,0.00,,---,0.00,VWS V14.01,2013-05-30 19:23:00,
2013-05-30 15:28:00,70.7,62.8,30.12,SSW,206,9.0,17.0,76,0.00,,---,0.00,VWS V14.01,2013-05-30 19:28:00,
2013-05-30 15:33:00,70.6,62.7,30.11,South,176,10.0,15.0,76,0.00,,---,0.00,VWS V14.01,2013-05-30 19:33:00,
2013-05-30 15:39:00,70.4,62.5,30.11,South,181,7.0,17.0,76,0.00,,---,0.00,VWS V14.01,2013-05-30 19:39:00,
2013-05-30 15:44:00,70.1,62.2,30.11,WSW,237,7.0,17.0,76,0.00,,---,0.00,VWS V14.01,2013-05-30 19:44:00,
2013-05-30 15:49:00,69.9,62.4,30.11,SW,219,7.0,17.0,77,0.00,,---,0.00,VWS V14.01,2013-05-30 19:49:00,
2013-05-30 15:55:00,69.7,62.2,30.11,SW,236,6.0,17.0,77,0.00,,---,0.00,VWS V14.01,2013-05-30 19:55:00,
2013-05-30 16:00:00,69.9,62.4,30.11,South,190,6.0,17.0,77,0.00,,---,0.00,VWS V14.01,2013-05-30 20:00:00,
2013-05-30 16:05:00,69.7,62.5,30.11,ESE,115,8.0,15.0,78,0.00,,---,0.00,VWS V14.01,2013-05-30 20:05:00,
2013-05-30 16:10:00,69.8,62.6,30.10,South,191,13.0,15.0,78,0.00,,---,0.00,VWS V14.01,2013-05-30 20:10:00,
2013-05-30 16:15:00,69.8,62.3,30.10,SW,217,7.0,16.0,77,0.00,,---,0.00,VWS V14.01,2013-05-30 20:15:00,
2013-05-30 16:20:00,69.8,62.3,30.10,ESE,122,5.0,16.0,77,0.00,,---,0.00,VWS V14.01,2013-05-30 20:20:00,
2013-05-30 16:25:00,69.9,62.4,30.10,SSE,162,10.0,16.0,77,0.00,,---,0.00,VWS V14.01,2013-05-30 20:25:00,
2013-05-30 16:30:00,69.6,62.1,30.10,SW,227,9.0,16.0,77,0.00,,---,0.00,VWS V14.01,2013-05-30 20:30:00,
2013-05-30 16:35:00,69.3,61.8,30.10,NNW,328,5.0,15.0,77,0.00,,---,0.00,VWS V14.01,2013-05-30 20:35:00,
2013-05-30 16:40:00,68.8,61.7,30.10,West,267,7.0,15.0,78,0.00,,---,0.00,VWS V14.01,2013-05-30 20:40:00,
2013-05-30 16:45:00,68.8,62.0,30.10,SSE,165,8.0,15.0,79,0.00,,---,0.00,VWS V14.01,2013-05-30 20:45:00,
2013-05-30 16:50:00,68.8,62.0,30.10,South,177,7.0,16.0,79,0.00,,---,0.00,VWS V14.01,2013-05-30 20:50:00,
2013-05-30 16:55:00,69.2,62.1,30.10,SSW,212,6.0,16.0,78,0.00,,---,0.00,VWS V14.01,2013-05-30 20:55:00,
2013-05-30 17:00:00,69.3,62.2,30.10,South,188,10.0,19.0,78,0.00,,---,0.00,VWS V14.01,2013-05-30 21:00:00,
2013-05-30 17:05:00,69.3,62.2,30.10,SSE,152,14.0,16.0,78,0.00,,---,0.00,VWS V14.01,2013-05-30 21:05:00,
2013-05-30 17:10:00,69.0,61.9,30.10,SW,214,7.0,16.0,78,0.00,,---,0.00,VWS V14.01,2013-05-30 21:10:00,
2013-05-30 17:15:00,69.0,61.9,30.10,SSE,158,7.0,16.0,78,0.00,,---,0.00,VWS V14.01,2013-05-30 21:15:00,
2013-05-30 17:20:00,69.1,62.0,30.10,South,188,7.0,16.0,78,0.00,,---,0.00,VWS V14.01,2013-05-30 21:20:00,
2013-05-30 17:25:00,69.0,62.2,30.10,SSW,211,6.0,16.0,79,0.00,,---,0.00,VWS V14.01,2013-05-30 21:25:00,
2013-05-30 17:30:00,68.6,61.5,30.10,SW,214,7.0,16.0,78,0.00,,---,0.00,VWS V14.01,2013-05-30 21:30:00,
2013-05-30 17:35:00,68.6,61.8,30.10,West,269,5.0,12.0,79,0.00,,---,0.00,VWS V14.01,2013-05-30 21:35:00,
2013-05-30 17:40:00,68.6,61.8,30.10,SE,143,6.0,16.0,79,0.00,,---,0.00,VWS V14.01,2013-05-30 21:40:00,
2013-05-30 17:45:00,68.7,61.9,30.10,NW,325,5.0,16.0,79,0.00,,---,0.00,VWS V14.01,2013-05-30 21:45:00,
2013-05-30 17:50:00,68.8,62.4,30.10,ESE,110,5.0,16.0,80,0.00,,---,0.00,VWS V14.01,2013-05-30 21:50:00,
2013-05-30 17:55:00,68.9,62.1,30.10,SW,226,7.0,18.0,79,0.00,,---,0.00,VWS V14.01,2013-05-30 21:55:00,
2013-05-30 18:00:00,68.9,62.5,30.10,North,357,5.0,19.0,80,0.00,,---,0.00,VWS V14.01,2013-05-30 22:00:00,
2013-05-30 18:05:00,69.1,62.7,30.10,WSW,248,6.0,18.0,80,0.00,,---,0.00,VWS V14.01,2013-05-30 22:05:00,
2013-05-30 18:12:00,68.9,62.5,30.10,WNW,296,10.0,19.0,80,0.00,,---,0.00,VWS V14.01,2013-05-30 22:12:00,
2013-05-30 18:17:00,68.5,62.1,30.10,SSW,201,9.0,19.0,80,0.00,,---,0.00,VWS V14.01,2013-05-30 22:17:00,
2013-05-30 18:22:00,67.9,61.5,30.09,SSW,200,8.0,19.0,80,0.00,,---,0.00,VWS V14.01,2013-05-30 22:22:00,
2013-05-30 18:27:00,67.5,61.5,30.09,SSE,160,5.0,19.0,81,0.00,,---,0.00,VWS V14.01,2013-05-30 22:27:00,
2013-05-30 18:32:00,67.1,61.1,30.09,SW,214,4.0,11.0,81,0.00,,---,0.00,VWS V14.01,2013-05-30 22:32:00,
2013-05-30 18:37:00,66.8,61.1,30.09,South,187,6.0,17.0,82,0.00,,---,0.00,VWS V14.01,2013-05-30 22:37:00,
2013-05-30 18:42:00,66.6,60.9,30.09,South,176,5.0,17.0,82,0.00,,---,0.00,VWS V14.01,2013-05-30 22:42:00,
2013-05-30 18:47:00,66.4,61.1,30.10,NE,37,5.0,17.0,83,0.00,,---,0.00,VWS V14.01,2013-05-30 22:47:00,
2013-05-30 18:52:00,66.3,61.0,30.09,SSE,163,4.0,17.0,83,0.00,,---,0.00,VWS V14.01,2013-05-30 22:52:00,
2013-05-30 18:57:00,66.0,60.7,30.09,SW,217,8.0,17.0,83,0.00,,---,0.00,VWS V14.01,2013-05-30 22:57:00,
2013-05-30 19:02:00,65.7,60.7,30.10,WSW,247,11.0,14.0,84,0.00,,---,0.00,VWS V14.01,2013-05-30 23:02:00,
2013-05-30 19:07:00,65.4,60.5,30.10,SSE,168,6.0,16.0,84,0.00,,---,0.00,VWS V14.01,2013-05-30 23:07:00,
2013-05-30 19:12:00,65.3,60.7,30.10,SSW,195,6.0,16.0,85,0.00,,---,0.00,VWS V14.01,2013-05-30 23:12:00,
2013-05-30 19:17:00,65.2,60.6,30.10,South,185,8.0,16.0,85,0.00,,---,0.00,VWS V14.01,2013-05-30 23:17:00,
2013-05-30 19:22:00,65.0,60.4,30.10,WNW,293,6.0,16.0,85,0.00,,---,0.00,VWS V14.01,2013-05-30 23:22:00,
2013-05-30 19:27:00,64.6,60.0,30.10,SSW,207,4.0,16.0,85,0.00,,---,0.00,VWS V14.01,2013-05-30 23:27:00,
2013-05-30 19:32:00,64.3,60.0,30.10,SSE,164,6.0,14.0,86,0.00,,---,0.00,VWS V14.01,2013-05-30 23:32:00,
2013-05-30 19:37:00,64.0,59.7,30.10,SSW,203,8.0,14.0,86,0.00,,---,0.00,VWS V14.01,2013-05-30 23:37:00,
2013-05-30 19:42:00,63.7,59.8,30.10,SW,226,6.0,15.0,87,0.00,,---,0.00,VWS V14.01,2013-05-30 23:42:00,
2013-05-30 19:47:00,63.5,59.9,30.10,WSW,254,7.0,15.0,88,0.00,,---,0.00,VWS V14.01,2013-05-30 23:47:00,
2013-05-30 19:52:00,63.2,59.6,30.10,SW,223,5.0,15.0,88,0.00,,---,0.00,VWS V14.01,2013-05-30 23:52:00,
2013-05-30 19:57:00,62.9,59.3,30.10,NW,310,9.0,15.0,88,0.00,,---,0.00,VWS V14.01,2013-05-30 23:57:00,
2013-05-30 20:02:00,62.6,59.3,30.10,NNE,23,6.0,9.0,89,0.00,,---,0.00,VWS V14.01,2013-05-31 00:02:00,
2013-05-30 20:07:00,62.4,59.4,30.10,SSW,207,8.0,12.0,90,0.00,,---,0.00,VWS V14.01,2013-05-31 00:07:00,
2013-05-30 20:12:00,62.1,59.1,30.10,SSW,209,10.0,12.0,90,0.00,,---,0.00,VWS V14.01,2013-05-31 00:12:00,
2013-05-30 20:18:00,61.9,59.2,30.10,WSW,238,4.0,12.0,91,0.00,,---,0.00,VWS V14.01,2013-05-31 00:18:00,
2013-05-30 20:23:00,61.8,59.2,30.10,WSW,248,4.0,12.0,91,0.00,,---,0.00,VWS V14.01,2013-05-31 00:23:00,
2013-05-30 20:28:00,61.7,59.0,30.11,SSE,165,4.0,12.0,91,0.00,,---,0.00,VWS V14.01,2013-05-31 00:28:00,
2013-05-30 20:33:00,61.6,59.3,30.11,SW,219,10.0,12.0,92,0.00,,---,0.00,VWS V14.01,2013-05-31 00:33:00,
2013-05-30 20:38:00,61.6,59.3,30.10,SSE,158,7.0,12.0,92,0.00,,---,0.00,VWS V14.01,2013-05-31 00:38:00,
2013-05-30 20:43:00,61.6,59.3,30.11,SSW,204,6.0,13.0,92,0.00,,---,0.00,VWS V14.01,2013-05-31 00:43:00,
2013-05-30 20:48:00,61.6,59.3,30.11,WNW,290,3.0,13.0,92,0.00,,---,0.00,VWS V14.01,2013-05-31 00:48:00,
2013-05-30 20:53:00,61.7,59.4,30.11,SSW,197,8.0,13.0,92,0.00,,---,0.00,VWS V14.01,2013-05-31 00:53:00,
2013-05-30 20:58:00,61.8,59.5,30.11,West,280,6.0,13.0,92,0.00,,---,0.00,VWS V14.01,2013-05-31 00:58:00,
2013-05-30 21:03:00,61.8,59.5,30.11,NNE,13,7.0,11.0,92,0.00,,---,0.00,VWS V14.01,2013-05-31 01:03:00,
2013-05-30 21:08:00,61.8,59.5,30.11,SSW,202,4.0,13.0,92,0.00,,---,0.00,VWS V14.01,2013-05-31 01:08:00,
2013-05-30 21:13:00,61.9,59.9,30.11,SSW,197,6.0,13.0,93,0.00,,---,0.00,VWS V14.01,2013-05-31 01:13:00,
2013-05-30 21:18:00,62.1,60.1,30.11,SSE,165,7.0,14.0,93,0.00,,---,0.00,VWS V14.01,2013-05-31 01:18:00,
2013-05-30 21:23:00,62.5,60.5,30.11,WSW,241,5.0,15.0,93,0.00,,---,0.00,VWS V14.01,2013-05-31 01:23:00,
2013-05-30 21:28:00,62.7,60.3,30.11,South,186,3.0,15.0,92,0.00,,---,0.00,VWS V14.01,2013-05-31 01:28:00,
2013-05-30 21:33:00,62.9,60.5,30.11,SSE,157,3.0,16.0,92,0.00,,---,0.00,VWS V14.01,2013-05-31 01:33:00,
2013-05-30 21:38:00,62.9,60.5,30.11,SW,229,12.0,17.0,92,0.00,,---,0.00,VWS V14.01,2013-05-31 01:38:00,
2013-05-30 21:43:00,62.8,60.5,30.11,SW,214,8.0,17.0,92,0.00,,---,0.00,VWS V14.01,2013-05-31 01:43:00,
2013-05-30 21:48:00,62.8,60.5,30.11,SW,229,7.0,17.0,92,0.00,,---,0.00,VWS V14.01,2013-05-31 01:48:00,
2013-05-30 21:53:00,62.7,60.3,30.11,ESE,118,8.0,17.0,92,0.00,,---,0.00,VWS V14.01,2013-05-31 01:53:00,
2013-05-30 21:59:00,62.8,60.5,30.11,NE,49,6.0,17.0,92,0.00,,---,0.00,VWS V14.01,2013-05-31 01:59:00,
2013-05-30 22:04:00,62.8,60.5,30.11,SW,231,7.0,14.0,92,0.00,,---,0.00,VWS V14.01,2013-05-31 02:04:00,
2013-05-30 22:09:00,62.8,60.5,30.11,WSW,255,8.0,16.0,92,0.00,,---,0.00,VWS V14.01,2013-05-31 02:09:00,
2013-05-30 22:14:00,62.8,60.5,30.11,South,176,8.0,16.0,92,0.00,,---,0.00,VWS V14.01,2013-05-31 02:14:00,
2013-05-30 22:19:00,62.7,60.3,30.12,South,173,5.0,16.0,92,0.00,,---,0.00,VWS V14.01,2013-05-31 02:19:00,
2013-05-30 22:24:00,62.5,60.2,30.11,SSW,195,9.0,16.0,92,0.00,,---,0.00,VWS V14.01,2013-05-31 02:24:00,
2013-05-30 22:29:00,62.3,60.0,30.11,SE,139,2.0,16.0,92,0.00,,---,0.00,VWS V14.01,2013-05-31 02:29:00,
2013-05-30 22:34:00,62.2,59.8,30.11,SE,129,5.0,12.0,92,0.00,,---,0.00,VWS V14.01,2013-05-31 02:34:00,
2013-05-30 22:39:00,62.3,60.2,30.11,West,259,4.0,15.0,93,0.00,,---,0.00,VWS V14.01,2013-05-31 02:39:00,
2013-05-30 22:44:00,62.5,60.5,30.11,SSW,197,9.0,15.0,93,0.00,,---,0.00,VWS V14.01,2013-05-31 02:44:00,
2013-05-30 22:49:00,62.6,60.5,30.11,SW,222,12.0,15.0,93,0.00,,---,0.00,VWS V14.01,2013-05-31 02:49:00,
2013-05-30 22:54:00,62.9,60.8,30.12,South,176,8.0,15.0,93,0.00,,---,0.00,VWS V14.01,2013-05-31 02:54:00,
2013-05-30 22:59:00,62.8,60.5,30.11,SSE,165,7.0,15.0,92,0.00,,---,0.00,VWS V14.01,2013-05-31 02:59:00,
2013-05-30 23:04:00,62.9,60.8,30.11,WSW,244,6.0,18.0,93,0.00,,---,0.00,VWS V14.01,2013-05-31 03:04:00,
2013-05-30 23:09:00,63.2,61.2,30.12,SSW,201,7.0,18.0,93,0.00,,---,0.00,VWS V14.01,2013-05-31 03:09:00,
2013-05-30 23:14:00,63.3,61.2,30.12,NW,309,3.0,18.0,93,0.00,,---,0.00,VWS V14.01,2013-05-31 03:14:00,
2013-05-30 23:20:00,63.7,61.3,30.12,West,261,6.0,18.0,92,0.00,,---,0.00,VWS V14.01,2013-05-31 03:20:00,
2013-05-30 23:25:00,63.7,61.3,30.12,ESE,115,6.0,18.0,92,0.00,,---,0.00,VWS V14.01,2013-05-31 03:25:00,
2013-05-30 23:30:00,63.9,61.8,30.12,SSE,152,2.0,18.0,93,0.00,,---,0.00,VWS V14.01,2013-05-31 03:30:00,
2013-05-30 23:35:00,64.0,61.6,30.12,SSW,211,6.0,14.0,92,0.00,,---,0.00,VWS V14.01,2013-05-31 03:35:00,
2013-05-30 23:40:00,64.1,61.7,30.12,East,92,6.0,14.0,92,0.00,,---,0.00,VWS V14.01,2013-05-31 03:40:00,
2013-05-30 23:45:00,64.0,61.6,30.12,WSW,243,9.0,15.0,92,0.00,,---,0.00,VWS V14.01,2013-05-31 03:45:00,
2013-05-30 23:50:00,64.1,61.7,30.12,SW,220,6.0,15.0,92,0.00,,---,0.00,VWS V14.01,2013-05-31 03:50:00,
2013-05-30 23:55:00,64.1,61.4,30.12,South,191,10.0,15.0,91,0.00,,---,0.00,VWS V14.01,2013-05-31 03:55:00,